createdAt,value
2019-02-07T00:00:26.446Z,101175.72
2019-02-07T00:02:58.248Z,101172.22
2019-02-07T00:05:28.992Z,101170.89
2019-02-07T00:08:03.376Z,101166.05
2019-02-07T00:10:37.350Z,101160.36
2019-02-07T00:13:09.552Z,101153.33
2019-02-07T00:15:39.820Z,101153.31
2019-02-07T00:18:10.258Z,101152.02
2019-02-07T00:20:42.538Z,101156.87
2019-02-07T00:23:12.876Z,101150.29
2019-02-07T00:25:43.142Z,101155.54
2019-02-07T00:28:13.368Z,101151.14
2019-02-07T00:30:43.740Z,101144.12
2019-02-07T00:33:13.968Z,101142.78
2019-02-07T00:35:44.262Z,101136.62
2019-02-07T00:38:14.642Z,101126.96
2019-02-07T00:40:44.810Z,101124.78
2019-02-07T00:43:15.014Z,101126.11
2019-02-07T00:45:45.192Z,101117.75
2019-02-07T00:48:15.359Z,101104.14
2019-02-07T00:50:45.534Z,101100.19
2019-02-07T00:53:15.729Z,101098.44
2019-02-07T00:55:46.186Z,101095.80
2019-02-07T00:58:16.362Z,101094.92
2019-02-07T01:00:46.550Z,101083.08
2019-02-07T01:03:16.746Z,101069.89
2019-02-07T01:05:47.045Z,101072.07
2019-02-07T01:08:17.304Z,101059.78
2019-02-07T01:10:47.648Z,101052.34
2019-02-07T01:13:17.892Z,101063.31
2019-02-07T01:15:49.724Z,101057.17
2019-02-07T01:18:20.299Z,101058.51
2019-02-07T01:20:51.106Z,101052.34
2019-02-07T01:23:21.870Z,101046.65
2019-02-07T01:25:52.065Z,101050.61
2019-02-07T01:28:22.348Z,101033.48
2019-02-07T01:30:52.508Z,101035.25
2019-02-07T01:33:22.914Z,101035.67
2019-02-07T01:35:53.073Z,101023.39
2019-02-07T01:38:23.214Z,101022.06
2019-02-07T01:40:53.498Z,101020.74
2019-02-07T01:43:23.618Z,101023.80
2019-02-07T01:45:53.819Z,101023.40
2019-02-07T01:48:25.806Z,101018.54
2019-02-07T01:50:56.108Z,101012.84
2019-02-07T01:53:26.462Z,101008.45
2019-02-07T01:55:56.893Z,101004.05
2019-02-07T01:58:28.057Z,100996.17
2019-02-07T02:00:58.701Z,100998.36
2019-02-07T02:03:28.833Z,100994.41
2019-02-07T02:05:58.974Z,100991.78
2019-02-07T02:08:29.270Z,100984.75
2019-02-07T02:10:59.440Z,100976.41
2019-02-07T02:13:30.335Z,100968.08
2019-02-07T02:16:00.568Z,100965.00
2019-02-07T02:18:30.865Z,100957.54
2019-02-07T02:21:01.117Z,100961.49
2019-02-07T02:23:31.421Z,100947.00
2019-02-07T02:26:01.687Z,100947.47
2019-02-07T02:28:31.989Z,100933.86
2019-02-07T02:31:02.209Z,100936.05
2019-02-07T02:33:32.377Z,100927.30
2019-02-07T02:36:02.533Z,100929.47
2019-02-07T02:38:32.714Z,100924.22
2019-02-07T02:41:03.233Z,100927.71
2019-02-07T02:43:33.450Z,100916.75
2019-02-07T02:46:03.623Z,100913.70
2019-02-07T02:48:34.919Z,100909.30
2019-02-07T02:51:05.137Z,100897.03
2019-02-07T02:53:35.297Z,100887.36
2019-02-07T02:56:08.547Z,100887.34
2019-02-07T02:58:38.923Z,100890.84
2019-02-07T03:01:28.311Z,100889.98
2019-02-07T03:04:13.925Z,100879.02
2019-02-07T03:07:01.621Z,100878.14
2019-02-07T03:09:53.511Z,100863.67
2019-02-07T03:12:43.545Z,100857.95
2019-02-07T03:15:30.925Z,100835.14
2019-02-07T03:18:17.553Z,100846.13
2019-02-07T03:21:12.476Z,100845.70
2019-02-07T03:24:08.997Z,100850.95
2019-02-07T03:27:01.108Z,100855.75
2019-02-07T03:29:53.671Z,100839.10
2019-02-07T03:32:45.605Z,100821.11
2019-02-07T03:35:45.790Z,100829.87
2019-02-07T03:38:34.240Z,100812.38
2019-02-07T03:41:26.663Z,100807.55
2019-02-07T03:44:10.251Z,100796.13
2019-02-07T03:47:02.173Z,100798.78
2019-02-07T03:49:49.519Z,100796.14
2019-02-07T03:52:54.058Z,100796.59
2019-02-07T03:55:32.955Z,100788.69
2019-02-07T03:58:25.724Z,100781.25
2019-02-07T04:01:27.013Z,100783.88
2019-02-07T04:04:13.108Z,100784.31
2019-02-07T04:07:02.435Z,100785.20
2019-02-07T04:09:53.953Z,100782.98
2019-02-07T04:12:46.181Z,100788.27
2019-02-07T04:15:36.493Z,100788.27
2019-02-07T04:18:26.167Z,100774.69
2019-02-07T04:21:12.732Z,100772.92
2019-02-07T04:24:11.580Z,100783.02
2019-02-07T04:27:17.578Z,100778.66
2019-02-07T04:30:14.345Z,100773.83
2019-02-07T04:33:02.990Z,100758.47
2019-02-07T04:35:47.889Z,100762.41
2019-02-07T04:38:37.060Z,100754.09
2019-02-07T04:41:23.985Z,100753.20
2019-02-07T04:44:25.728Z,100748.38
2019-02-07T04:47:13.210Z,100750.98
2019-02-07T04:49:54.458Z,100736.97
2019-02-07T04:52:47.979Z,100728.17
2019-02-07T04:55:35.594Z,100717.20
2019-02-07T04:58:28.727Z,100702.74
2019-02-07T05:01:20.729Z,100704.94
2019-02-07T05:04:19.133Z,100696.17
2019-02-07T05:07:11.566Z,100698.41
2019-02-07T05:10:06.540Z,100699.73
2019-02-07T05:13:04.820Z,100696.26
2019-02-07T05:15:55.500Z,100684.82
2019-02-07T05:18:58.755Z,100673.43
2019-02-07T05:21:46.615Z,100665.16
2019-02-07T05:24:36.342Z,100655.52
2019-02-07T05:27:21.535Z,100643.67
2019-02-07T05:30:10.418Z,100638.86
2019-02-07T05:33:02.674Z,100625.27
2019-02-07T05:35:57.969Z,100620.44
2019-02-07T05:38:47.806Z,100631.80
2019-02-07T05:41:38.658Z,100626.56
2019-02-07T05:44:36.669Z,100619.13
2019-02-07T05:47:25.940Z,100634.02
2019-02-07T05:50:16.801Z,100616.91
2019-02-07T05:53:15.843Z,100617.86
2019-02-07T05:56:03.808Z,100602.50
2019-02-07T05:58:53.231Z,100594.98
2019-02-07T06:01:46.991Z,100587.06
2019-02-07T06:04:45.262Z,100588.78
2019-02-07T06:07:41.876Z,100590.57
2019-02-07T06:10:29.867Z,100584.49
2019-02-07T06:13:27.915Z,100578.26
2019-02-07T06:16:27.990Z,100588.38
2019-02-07T06:19:17.079Z,100580.91
2019-02-07T06:22:12.091Z,100576.08
2019-02-07T06:25:20.726Z,100567.36
2019-02-07T06:28:03.573Z,100562.94
2019-02-07T06:30:51.571Z,100555.14
2019-02-07T06:33:43.765Z,100558.61
2019-02-07T06:36:45.016Z,100555.04
2019-02-07T06:39:40.004Z,100541.88
2019-02-07T06:42:27.815Z,100546.69
2019-02-07T06:45:13.791Z,100540.97
2019-02-07T06:47:52.546Z,100535.64
2019-02-07T06:50:48.160Z,100534.30
2019-02-07T06:53:36.039Z,100532.97
2019-02-07T06:56:34.112Z,100530.84
2019-02-07T06:59:21.614Z,100525.98
2019-02-07T07:02:09.323Z,100519.38
2019-02-07T07:04:50.954Z,100513.25
2019-02-07T07:07:52.077Z,100520.70
2019-02-07T07:10:43.984Z,100511.98
2019-02-07T07:13:23.657Z,100509.75
2019-02-07T07:16:07.368Z,100496.58
2019-02-07T07:19:09.279Z,100494.81
2019-02-07T07:21:51.327Z,100494.39
2019-02-07T07:24:46.197Z,100492.67
2019-02-07T07:27:33.777Z,100480.41
2019-02-07T07:30:32.599Z,100471.28
2019-02-07T07:33:33.920Z,100462.00
2019-02-07T07:36:26.588Z,100471.66
2019-02-07T07:39:25.072Z,100471.66
2019-02-07T07:42:32.568Z,100462.56
2019-02-07T07:45:24.592Z,100463.06
2019-02-07T07:48:32.095Z,100463.47
2019-02-07T07:51:21.345Z,100464.81
2019-02-07T07:54:25.769Z,100465.97
2019-02-07T07:57:13.622Z,100458.98
2019-02-07T08:00:02.902Z,100453.79
2019-02-07T08:02:42.258Z,100440.62
2019-02-07T08:05:31.500Z,100434.55
2019-02-07T08:08:24.638Z,100442.36
2019-02-07T08:11:13.782Z,100447.61
2019-02-07T08:14:01.414Z,100447.97
2019-02-07T08:16:54.529Z,100452.81
2019-02-07T08:20:02.116Z,100449.39
2019-02-07T08:22:54.098Z,100441.94
2019-02-07T08:25:42.241Z,100437.09
2019-02-07T08:28:34.377Z,100426.16
2019-02-07T08:31:29.994Z,100438.38
2019-02-07T08:34:23.075Z,100438.83
2019-02-07T08:37:06.277Z,100422.70
2019-02-07T08:39:53.809Z,100414.34
2019-02-07T08:42:46.373Z,100415.63
2019-02-07T08:45:43.196Z,100407.67
2019-02-07T08:48:36.275Z,100401.69
2019-02-07T08:51:20.559Z,100401.07
2019-02-07T08:54:08.975Z,100404.20
2019-02-07T08:57:16.387Z,100403.39
2019-02-07T09:00:08.676Z,100390.04
2019-02-07T09:03:01.379Z,100389.70
2019-02-07T09:05:49.283Z,100383.94
2019-02-07T09:08:41.468Z,100377.28
2019-02-07T09:11:38.145Z,100392.08
2019-02-07T09:14:25.321Z,100387.58
2019-02-07T09:17:20.361Z,100394.59
2019-02-07T09:20:01.479Z,100391.05
2019-02-07T09:22:50.647Z,100387.17
2019-02-07T09:25:42.823Z,100382.34
2019-02-07T09:28:30.669Z,100385.10
2019-02-07T09:31:25.615Z,100387.58
2019-02-07T09:34:23.637Z,100389.83
2019-02-07T09:37:12.787Z,100402.33
2019-02-07T09:39:49.224Z,100406.22
2019-02-07T09:42:41.403Z,100403.60
2019-02-07T09:45:42.663Z,100401.76
2019-02-07T09:48:31.695Z,100393.30
2019-02-07T09:51:23.667Z,100404.00
2019-02-07T09:54:13.241Z,100400.39
2019-02-07T09:56:51.117Z,100395.17
2019-02-07T09:59:46.142Z,100397.32
2019-02-07T10:02:47.417Z,100399.42
2019-02-07T10:05:30.515Z,100404.34
2019-02-07T10:08:18.129Z,100397.67
2019-02-07T10:11:06.117Z,100407.20
2019-02-07T10:14:14.397Z,100402.85
2019-02-07T10:17:03.995Z,100396.23
2019-02-07T10:20:08.032Z,100386.89
2019-02-07T10:22:57.156Z,100383.27
2019-02-07T10:25:40.485Z,100378.27
2019-02-07T10:28:29.883Z,100371.72
2019-02-07T10:31:21.734Z,100380.52
2019-02-07T10:34:21.939Z,100379.92
2019-02-07T10:37:23.154Z,100374.59
2019-02-07T10:40:13.552Z,100371.73
2019-02-07T10:43:03.053Z,100362.09
2019-02-07T10:46:01.565Z,100363.36
2019-02-07T10:48:49.357Z,100367.77
2019-02-07T10:51:43.541Z,100371.32
2019-02-07T10:54:30.817Z,100375.10
2019-02-07T10:57:24.107Z,100376.90
2019-02-07T11:00:22.761Z,100371.76
2019-02-07T11:03:06.248Z,100365.86
2019-02-07T11:05:49.089Z,100378.67
2019-02-07T11:08:44.680Z,100366.34
2019-02-07T11:11:32.287Z,100360.80
2019-02-07T11:14:39.715Z,100363.39
2019-02-07T11:17:30.430Z,100364.05
2019-02-07T11:20:24.616Z,100366.89
2019-02-07T11:23:22.805Z,100363.13
2019-02-07T11:26:08.832Z,100361.78
2019-02-07T11:29:09.796Z,100362.89
2019-02-07T11:31:55.018Z,100368.81
2019-02-07T11:34:56.366Z,100351.81
2019-02-07T11:37:44.260Z,100350.55
2019-02-07T11:40:51.844Z,100357.48
2019-02-07T11:43:40.054Z,100348.69
2019-02-07T11:46:37.583Z,100351.32
2019-02-07T11:49:40.534Z,100359.28
2019-02-07T11:52:35.648Z,100345.19
2019-02-07T11:55:25.423Z,100354.39
2019-02-07T11:58:18.986Z,100352.00
2019-02-07T12:01:06.847Z,100360.64
2019-02-07T12:04:02.074Z,100362.22
2019-02-07T12:06:54.362Z,100348.56
2019-02-07T12:09:46.090Z,100339.26
2019-02-07T12:12:33.128Z,100325.27
2019-02-07T12:15:34.821Z,100327.71
2019-02-07T12:18:42.549Z,100326.62
2019-02-07T12:21:34.540Z,100316.31
2019-02-07T12:24:23.664Z,100309.20
2019-02-07T12:27:24.890Z,100319.28
2019-02-07T12:30:07.861Z,100311.99
2019-02-07T12:33:14.891Z,100306.83
2019-02-07T12:35:53.022Z,100312.41
2019-02-07T12:38:35.332Z,100318.66
2019-02-07T12:41:26.750Z,100308.61
2019-02-07T12:44:16.398Z,100311.14
2019-02-07T12:47:08.727Z,100308.12
2019-02-07T12:50:10.546Z,100299.17
2019-02-07T12:53:01.331Z,100302.75
2019-02-07T12:55:56.395Z,100307.16
2019-02-07T12:58:57.982Z,100304.48
2019-02-07T13:01:40.317Z,100307.48
2019-02-07T13:04:29.794Z,100313.83
2019-02-07T13:07:08.925Z,100308.80
2019-02-07T13:10:03.939Z,100309.59
2019-02-07T13:13:05.013Z,100302.02
2019-02-07T13:16:06.382Z,100299.84
2019-02-07T13:19:04.169Z,100303.52
2019-02-07T13:21:55.569Z,100307.75
2019-02-07T13:24:44.791Z,100311.53
2019-02-07T13:27:34.042Z,100314.14
2019-02-07T13:30:35.502Z,100309.39
2019-02-07T13:33:33.941Z,100311.06
2019-02-07T13:36:22.814Z,100299.17
2019-02-07T13:39:18.079Z,100293.73
2019-02-07T13:42:07.105Z,100288.05
2019-02-07T13:45:13.837Z,100289.92
2019-02-07T13:48:09.909Z,100283.78
2019-02-07T13:50:59.739Z,100289.73
2019-02-07T13:53:55.009Z,100282.88
2019-02-07T13:56:50.313Z,100288.52
2019-02-07T14:00:17.718Z,100285.99
2019-02-07T14:03:05.283Z,100283.86
2019-02-07T14:05:54.681Z,100288.80
2019-02-07T14:08:53.908Z,100285.80
2019-02-07T14:11:37.523Z,100289.84
2019-02-07T14:14:29.933Z,100296.18
2019-02-07T14:17:11.435Z,100291.24
2019-02-07T14:20:13.046Z,100295.88
2019-02-07T14:23:14.394Z,100296.69
2019-02-07T14:26:02.585Z,100298.02
2019-02-07T14:28:54.633Z,100295.95
2019-02-07T14:31:42.694Z,100306.06
2019-02-07T14:34:39.521Z,100310.72
2019-02-07T14:37:25.579Z,100313.86
2019-02-07T14:40:20.694Z,100319.19
2019-02-07T14:43:21.707Z,100322.44
2019-02-07T14:46:23.983Z,100324.91
2019-02-07T14:48:55.079Z,100332.62
2019-02-07T14:51:25.463Z,100345.80
2019-02-07T14:53:56.358Z,100342.89
2019-02-07T14:56:26.785Z,100340.14
2019-02-07T14:59:01.405Z,100333.73
2019-02-07T15:01:31.754Z,100339.64
2019-02-07T15:06:44.709Z,100344.83
2019-02-07T15:09:17.245Z,100348.72
2019-02-07T15:11:58.489Z,100350.36
2019-02-07T15:14:32.560Z,100339.71
2019-02-07T15:17:03.009Z,100351.95
2019-02-07T15:19:34.838Z,100353.64
2019-02-07T15:22:05.964Z,100350.50
2019-02-07T15:24:36.637Z,100360.28
2019-02-07T15:27:09.937Z,100352.98
2019-02-07T15:29:50.722Z,100353.34
2019-02-07T15:32:21.028Z,100354.53
2019-02-07T15:34:53.851Z,100356.71
2019-02-07T15:37:23.994Z,100353.81
2019-02-07T15:39:54.934Z,100357.84
2019-02-07T15:42:34.202Z,100362.36
2019-02-07T15:45:11.320Z,100361.50
2019-02-07T15:47:41.734Z,100365.16
2019-02-07T15:50:18.448Z,100363.63
2019-02-07T15:52:51.989Z,100367.22
2019-02-07T15:55:21.230Z,100358.69
2019-02-07T15:57:51.597Z,100365.84
2019-02-07T16:00:46.159Z,100372.91
2019-02-07T16:03:34.637Z,100369.61
2019-02-07T16:06:36.658Z,100374.70
2019-02-07T16:09:18.821Z,100367.83
2019-02-07T16:11:55.130Z,100374.86
2019-02-07T16:14:38.392Z,100374.48
2019-02-07T16:17:08.056Z,100380.02
2019-02-07T16:19:38.377Z,100386.16
2019-02-07T16:22:24.811Z,100380.19
2019-02-07T16:25:03.897Z,100375.77
2019-02-07T16:27:34.441Z,100370.15
2019-02-07T16:30:10.058Z,100369.27
2019-02-07T16:32:40.420Z,100372.22
2019-02-07T16:35:11.783Z,100380.45
2019-02-07T16:37:42.536Z,100373.63
2019-02-07T16:40:13.158Z,100376.82
2019-02-07T16:42:46.768Z,100371.47
2019-02-07T16:45:22.063Z,100377.60
2019-02-07T16:47:51.347Z,100377.53
2019-02-07T16:50:22.235Z,100381.50
2019-02-07T16:52:52.521Z,100381.67
2019-02-07T16:55:28.820Z,100381.17
2019-02-07T16:58:00.896Z,100376.24
2019-02-07T17:00:32.078Z,100377.45
2019-02-07T17:03:10.226Z,100378.49
2019-02-07T17:05:41.837Z,100376.89
2019-02-07T17:08:15.106Z,100378.59
2019-02-07T17:10:58.125Z,100382.55
2019-02-07T17:13:32.520Z,100387.58
2019-02-07T17:16:11.119Z,100400.80
2019-02-07T17:18:47.253Z,100398.55
2019-02-07T17:21:17.875Z,100398.92
2019-02-07T17:23:49.693Z,100406.02
2019-02-07T17:26:20.167Z,100415.79
2019-02-07T17:28:50.423Z,100414.05
2019-02-07T17:31:20.743Z,100416.17
2019-02-07T17:33:51.061Z,100418.09
2019-02-07T17:36:24.103Z,100418.44
2019-02-07T17:39:07.972Z,100425.50
2019-02-07T17:41:39.739Z,100432.23
2019-02-07T17:44:10.015Z,100427.20
2019-02-07T17:46:40.495Z,100432.92
2019-02-07T17:49:12.069Z,100437.63
2019-02-07T17:51:42.980Z,100431.59
2019-02-07T17:54:18.948Z,100437.69
2019-02-07T17:56:51.569Z,100434.64
2019-02-07T17:59:24.165Z,100432.41
2019-02-07T18:01:54.442Z,100427.22
2019-02-07T18:04:24.729Z,100436.33
2019-02-07T18:06:58.137Z,100429.63
2019-02-07T18:09:31.993Z,100428.89
2019-02-07T18:12:02.179Z,100428.09
2019-02-07T18:14:37.534Z,100433.47
2019-02-07T18:17:07.844Z,100435.27
2019-02-07T18:19:41.480Z,100427.72
2019-02-07T18:22:15.136Z,100428.02
2019-02-07T18:24:50.542Z,100436.31
2019-02-07T18:27:20.835Z,100445.52
2019-02-07T18:29:51.012Z,100439.23
2019-02-07T18:32:21.270Z,100449.33
2019-02-07T18:34:57.795Z,100448.84
2019-02-07T18:37:30.847Z,100455.95
2019-02-07T18:40:08.353Z,100458.69
2019-02-07T18:42:38.721Z,100445.09
2019-02-07T18:45:10.002Z,100454.86
2019-02-07T18:47:44.614Z,100449.55
2019-02-07T18:50:24.784Z,100446.98
2019-02-07T18:52:56.595Z,100447.80
2019-02-07T18:55:28.431Z,100450.09
2019-02-07T18:57:58.598Z,100444.83
2019-02-07T19:00:30.946Z,100440.45
2019-02-07T19:03:01.391Z,100448.86
2019-02-07T19:05:34.766Z,100438.73
2019-02-07T19:08:06.321Z,100445.80
2019-02-07T19:10:40.204Z,100441.84
2019-02-07T19:13:10.735Z,100449.74
2019-02-07T19:15:44.777Z,100444.51
2019-02-07T19:18:21.213Z,100449.75
2019-02-07T19:20:52.013Z,100449.39
2019-02-07T19:23:23.191Z,100452.95
2019-02-07T19:25:53.818Z,100458.16
2019-02-07T19:28:24.260Z,100467.86
2019-02-07T19:30:54.726Z,100458.16
2019-02-07T19:33:26.782Z,100463.06
2019-02-07T19:36:02.307Z,100464.77
2019-02-07T19:38:34.037Z,100472.21
2019-02-07T19:41:04.558Z,100473.45
2019-02-07T19:43:40.005Z,100464.66
2019-02-07T19:46:10.416Z,100472.10
2019-02-07T19:48:41.255Z,100478.67
2019-02-07T19:51:11.583Z,100483.06
2019-02-07T19:53:48.327Z,100479.98
2019-02-07T19:56:21.953Z,100484.37
2019-02-07T19:58:52.680Z,100486.60
2019-02-07T20:01:23.196Z,100491.91
2019-02-07T20:03:55.167Z,100491.03
2019-02-07T20:06:26.703Z,100490.58
2019-02-07T20:08:57.754Z,100488.84
2019-02-07T20:11:28.899Z,100496.33
2019-02-07T20:14:01.220Z,100499.80
2019-02-07T20:16:31.476Z,100491.08
2019-02-07T20:19:06.255Z,100494.98
2019-02-07T20:21:39.277Z,100491.01
2019-02-07T20:24:09.641Z,100501.59
2019-02-07T20:26:44.017Z,100513.91
2019-02-07T20:29:18.806Z,100514.77
2019-02-07T20:31:49.653Z,100513.02
2019-02-07T20:34:20.153Z,100510.79
2019-02-07T20:36:50.821Z,100513.45
2019-02-07T20:39:21.323Z,100516.91
2019-02-07T20:41:52.589Z,100516.08
2019-02-07T20:44:22.860Z,100516.00
2019-02-07T20:46:54.729Z,100526.53
2019-02-07T20:49:25.112Z,100523.00
2019-02-07T20:51:55.450Z,100528.70
2019-02-07T20:54:25.704Z,100530.50
2019-02-07T20:56:56.549Z,100528.77
2019-02-07T20:59:26.762Z,100532.76
2019-02-07T21:01:57.373Z,100533.20
2019-02-07T21:04:30.381Z,100531.86
2019-02-07T21:07:01.090Z,100534.08
2019-02-07T21:09:34.585Z,100534.05
2019-02-07T21:12:05.268Z,100537.59
2019-02-07T21:14:35.775Z,100541.53
2019-02-07T21:17:06.080Z,100546.39
2019-02-07T21:19:36.571Z,100556.02
2019-02-07T21:22:06.914Z,100554.23
2019-02-07T21:24:37.238Z,100554.70
2019-02-07T21:27:07.515Z,100556.42
2019-02-07T21:29:37.824Z,100571.38
2019-02-07T21:32:08.063Z,100559.51
2019-02-07T21:34:38.232Z,100570.88
2019-02-07T21:37:11.848Z,100574.83
2019-02-07T21:39:42.358Z,100583.17
2019-02-07T21:42:12.791Z,100585.78
2019-02-07T21:44:43.085Z,100584.91
2019-02-07T21:47:14.106Z,100584.02
2019-02-07T21:49:44.582Z,100598.06
2019-02-07T21:52:15.699Z,100597.20
2019-02-07T21:54:48.235Z,100601.17
2019-02-07T21:57:19.580Z,100604.66
2019-02-07T21:59:50.694Z,100612.51
2019-02-07T22:02:21.006Z,100613.81
2019-02-07T22:04:51.285Z,100617.30
2019-02-07T22:07:21.863Z,100621.59
2019-02-07T22:09:52.176Z,100626.41
2019-02-07T22:12:22.323Z,100625.03
2019-02-07T22:14:52.523Z,100630.30
2019-02-07T22:17:22.697Z,100635.97
2019-02-07T22:19:53.298Z,100635.97
2019-02-07T22:22:24.081Z,100633.76
2019-02-07T22:24:54.779Z,100646.41
2019-02-07T22:27:25.195Z,100639.38
2019-02-07T22:29:55.728Z,100643.30
2019-02-07T22:32:26.032Z,100641.56
2019-02-07T22:34:57.098Z,100642.84
2019-02-07T22:37:27.612Z,100642.41
2019-02-07T22:39:58.786Z,100653.84
2019-02-07T22:42:29.438Z,100674.83
2019-02-07T22:44:59.674Z,100677.92
2019-02-07T22:47:48.342Z,100675.71
2019-02-07T22:50:20.640Z,100680.03
2019-02-07T22:52:56.805Z,100682.22
2019-02-07T22:55:25.263Z,100682.19
2019-02-07T22:57:55.595Z,100724.44
2019-02-07T23:01:42.692Z,100702.50
2019-02-07T23:04:13.350Z,100692.37
2019-02-07T23:06:49.862Z,100684.34
2019-02-07T23:09:20.238Z,100685.19
2019-02-07T23:11:50.576Z,100680.31
2019-02-07T23:14:43.562Z,100689.94
2019-02-07T23:17:14.116Z,100683.35
2019-02-07T23:19:44.560Z,100698.39
2019-02-07T23:22:15.655Z,100703.31
2019-02-07T23:24:49.965Z,100695.83
2019-02-07T23:27:20.346Z,100698.52
2019-02-07T23:29:51.054Z,100713.91
2019-02-07T23:32:24.062Z,100719.70
2019-02-07T23:34:55.982Z,100712.33
2019-02-07T23:37:48.732Z,100696.48
2019-02-07T23:40:27.600Z,100719.73
2019-02-07T23:42:58.773Z,100704.34
2019-02-07T23:45:29.126Z,100705.18
2019-02-07T23:48:12.561Z,100703.80
2019-02-07T23:50:39.427Z,100712.14
2019-02-07T23:53:14.626Z,100713.41
2019-02-07T23:55:50.665Z,100717.35
2019-02-07T23:58:21.066Z,100714.64
